Time;durP1;ratioP1;P1;durP2;ratioP2;P2;SDS_P1;SDS_P2;PMS_P1;PMS_P2;Temp;Humidity;BMP_temperature;BMP_pressure;BME280_temperature;BME280_humidity;BME280_pressure;Samples;Min_cycle;Max_cycle;Signal;HPM_P1;HPM_P2
2022/09/08 00:01:15;;;;;;;8.35;5.22;;;;;;;13.39;89.23;97412.28;5046346;28;20111;-68
2022/09/08 00:03:42;;;;;;;6.97;6.20;;;;;;;13.26;90.64;97410.94;5044806;28;20088;-68
2022/09/08 00:06:16;;;;;;;9.27;6.97;;;;;;;13.32;91.12;97406.66;5044864;28;20048;-69
2022/09/08 00:08:45;;;;;;;8.73;6.57;;;;;;;13.27;90.71;97409.78;5046668;28;20052;-69
2022/09/08 00:11:16;;;;;;;8.75;6.63;;;;;;;13.17;91.45;97407.66;5045027;28;20089;-68
2022/09/08 00:13:43;;;;;;;8.68;6.50;;;;;;;12.74;91.93;97352.63;5046717;28;20063;-68
2022/09/08 00:16:10;;;;;;;7.30;6.55;;;;;;;12.78;92.12;97347.94;5023804;28;20096;-69
2022/09/08 00:18:40;;;;;;;10.60;7.00;;;;;;;13.08;92.81;97407.16;5006998;28;20165;-69
2022/09/08 00:21:07;;;;;;;7.28;6.38;;;;;;;13.13;92.54;97408.78;5006748;28;20120;-68
2022/09/08 00:23:34;;;;;;;8.52;6.80;;;;;;;12.83;92.68;97364.28;5006820;28;20056;-68
2022/09/08 00:26:01;;;;;;;9.55;7.18;;;;;;;12.98;92.43;97395.81;5005071;28;20209;-69
2022/09/08 00:28:28;;;;;;;9.27;6.30;;;;;;;13.35;91.29;97417.03;5006617;28;20136;-69
2022/09/08 00:30:55;;;;;;;12.13;6.65;;;;;;;13.42;90.99;97422.66;5005363;28;20329;-69
2022/09/08 00:33:23;;;;;;;7.63;6.07;;;;;;;13.49;91.23;97408.84;5006345;28;20054;-68
2022/09/08 00:35:51;;;;;;;6.90;6.15;;;;;;;13.24;90.92;97404.16;5004891;28;20493;-68
2022/09/08 00:38:22;;;;;;;7.93;6.03;;;;;;;13.60;90.76;97418.13;5004746;28;20190;-68
2022/09/08 00:40:49;;;;;;;9.13;6.32;;;;;;;13.13;89.77;97348.41;5004710;28;20057;-68
2022/09/08 00:43:39;;;;;;;7.85;5.82;;;;;;;13.57;90.15;97413.31;5006316;28;20386;-69
2022/09/08 00:46:16;;;;;;;9.68;6.75;;;;;;;13.61;89.91;97418.91;5005952;28;20093;-69
2022/09/08 00:48:48;;;;;;;7.93;5.97;;;;;;;13.62;89.83;97418.50;5005843;28;20054;-69
2022/09/08 00:51:17;;;;;;;7.95;5.70;;;;;;;13.40;89.42;97386.06;5005746;28;20606;-68
2022/09/08 00:53:45;;;;;;;9.60;6.10;;;;;;;13.56;89.80;97419.25;5005856;28;20050;-69
2022/09/08 00:56:13;;;;;;;10.95;6.15;;;;;;;13.43;91.02;97415.94;5004671;28;20105;-68
2022/09/08 00:58:40;;;;;;;8.15;6.70;;;;;;;13.54;90.43;97416.88;5004354;28;20509;-68
2022/09/08 01:01:09;;;;;;;6.88;5.57;;;;;;;13.49;90.26;97414.41;5003464;28;20050;-68
2022/09/08 01:03:41;;;;;;;8.13;6.25;;;;;;;13.57;90.56;97429.19;5005720;28;20088;-69
2022/09/08 01:12:43;;;;;;;9.50;6.07;;;;;;;13.52;89.92;97413.66;5004307;28;20065;-68
2022/09/08 01:15:16;;;;;;;10.70;6.28;;;;;;;12.90;88.72;97336.56;5024352;28;20627;-67
2022/09/08 01:17:43;;;;;;;8.90;6.30;;;;;;;13.38;89.06;97405.13;5045246;28;20258;-69
2022/09/08 01:20:11;;;;;;;10.27;6.72;;;;;;;13.37;89.49;97409.09;5043625;28;20140;-68
2022/09/08 01:23:05;;;;;;;10.02;6.45;;;;;;;13.30;90.45;97414.59;5044622;28;20523;-68
2022/09/08 01:25:43;;;;;;;;;;;;;;;13.19;91.37;97412.84;5045255;28;20048;-69
2022/09/08 01:28:31;;;;;;;9.60;6.05;;;;;;;12.91;91.36;97368.75;5043922;28;19990;-67
2022/09/08 01:31:00;;;;;;;7.78;5.70;;;;;;;13.20;90.72;97409.69;5043818;28;20084;-68
2022/09/08 01:33:27;;;;;;;9.85;6.25;;;;;;;13.14;91.20;97411.19;5045138;28;20107;-68
2022/09/08 01:35:54;;;;;;;11.45;6.63;;;;;;;12.35;91.38;97301.28;5044725;28;20557;-68
2022/09/08 01:38:20;;;;;;;10.75;6.50;;;;;;;12.84;91.75;97385.34;5044770;28;20140;-70
2022/09/08 01:40:47;;;;;;;8.85;5.35;;;;;;;13.13;91.90;97404.03;5044841;28;20484;-69
2022/09/08 01:43:13;;;;;;;9.80;6.20;;;;;;;13.14;91.66;97411.19;5045054;28;20061;-68
2022/09/08 01:45:40;;;;;;;7.45;6.00;;;;;;;13.12;92.06;97407.19;5043471;28;20081;-69
2022/09/08 01:48:08;;;;;;;6.95;5.65;;;;;;;13.25;90.79;97406.56;5043594;28;20136;-69
2022/09/08 01:50:36;;;;;;;6.47;5.78;;;;;;;13.13;91.64;97404.03;5045020;28;20057;-69
2022/09/08 01:53:02;;;;;;;6.50;5.55;;;;;;;13.14;91.30;97400.06;5044683;28;20535;-68
2022/09/08 01:55:29;;;;;;;11.77;6.50;;;;;;;13.10;91.80;97396.41;5044408;28;20076;-68
2022/09/08 01:57:56;;;;;;;10.35;6.53;;;;;;;12.98;92.77;97396.63;5043052;28;20507;-68
2022/09/08 02:00:23;;;;;;;11.13;6.75;;;;;;;12.65;93.24;97324.31;5044959;28;20152;-69
2022/09/08 02:02:50;;;;;;;8.07;5.80;;;;;;;13.10;92.79;97388.06;5043632;28;20067;-68
2022/09/08 02:05:16;;;;;;;8.88;6.15;;;;;;;13.15;91.91;97389.75;5045020;28;20057;-68
2022/09/08 02:07:49;;;;;;;9.07;5.55;;;;;;;13.13;91.61;97387.34;5044628;28;20587;-68
2022/09/08 02:10:17;;;;;;;9.40;5.78;;;;;;;13.07;92.20;97391.63;5044927;28;20132;-68
2022/09/08 02:12:43;;;;;;;8.95;6.32;;;;;;;12.70;92.61;97339.84;5044842;28;20147;-68
2022/09/08 02:15:11;;;;;;;8.43;5.93;;;;;;;12.47;92.16;97298.25;5035656;28;20232;-68
2022/09/08 02:17:37;;;;;;;10.93;6.38;;;;;;;12.51;92.13;97321.34;5023176;28;20111;-68
2022/09/08 02:20:05;;;;;;;8.20;5.95;;;;;;;12.54;91.95;97337.25;5024227;28;20053;-71
2022/09/08 02:22:32;;;;;;;10.63;6.15;;;;;;;11.90;92.55;97234.78;5023550;28;20085;-68
2022/09/08 02:24:59;;;;;;;9.98;5.80;;;;;;;12.29;93.66;97305.56;5024734;28;20120;-70
2022/09/08 02:27:25;;;;;;;8.07;5.55;;;;;;;12.77;93.64;97364.97;5023080;28;20053;-68
2022/09/08 02:29:52;;;;;;;10.27;6.00;;;;;;;12.78;93.50;97353.47;5024734;28;20274;-68
2022/09/08 02:32:19;;;;;;;7.05;5.47;;;;;;;12.67;93.32;97330.31;5024211;28;20092;-67
2022/09/08 02:34:45;;;;;;;8.63;5.70;;;;;;;12.42;93.76;97306.94;5022786;28;20510;-68
2022/09/08 02:37:12;;;;;;;9.07;6.20;;;;;;;12.69;94.25;97355.75;5024085;28;20260;-69
2022/09/08 02:39:38;;;;;;;8.48;6.40;;;;;;;12.01;94.65;97269.03;5024258;28;20136;-68
2022/09/08 02:42:06;;;;;;;9.65;6.55;;;;;;;12.71;94.44;97353.38;5024240;28;20511;-69
2022/09/08 02:44:32;;;;;;;9.43;5.90;;;;;;;12.48;96.56;97358.22;5024330;28;20057;-67
2022/09/08 02:46:59;;;;;;;10.57;6.72;;;;;;;12.64;94.99;97353.28;5024315;28;20144;-68
2022/09/08 02:49:26;;;;;;;9.82;6.18;;;;;;;12.37;93.69;97321.16;5023740;28;20092;-67
2022/09/08 02:51:53;;;;;;;8.68;5.93;;;;;;;12.70;94.24;97351.78;5023029;28;20058;-66
2022/09/08 02:54:19;;;;;;;9.95;6.38;;;;;;;12.70;94.28;97351.78;5024098;28;20092;-67
2022/09/08 02:56:46;;;;;;;9.77;5.85;;;;;;;12.10;93.81;97255.69;5024749;28;20096;-66
2022/09/08 02:59:13;;;;;;;9.02;5.93;;;;;;;12.69;93.97;97352.97;5022393;28;20096;-67
2022/09/08 03:01:40;;;;;;;8.98;5.53;;;;;;;12.54;93.97;97330.91;5022561;28;20089;-66
2022/09/08 03:04:07;;;;;;;10.02;6.53;;;;;;;12.75;93.70;97348.69;5023982;28;20051;-67
2022/09/08 03:06:33;;;;;;;7.13;5.78;;;;;;;12.75;93.49;97345.91;5022893;28;20053;-66
2022/09/08 03:09:00;;;;;;;13.10;6.43;;;;;;;12.69;93.23;97350.19;5023915;28;20103;-66
2022/09/08 03:11:28;;;;;;;8.98;6.35;;;;;;;12.24;93.25;97272.53;5023825;28;20050;-67
2022/09/08 03:13:54;;;;;;;10.48;5.78;;;;;;;12.71;92.94;97347.81;5039066;28;20088;-67
2022/09/08 03:16:21;;;;;;;10.07;5.55;;;;;;;12.66;92.77;97345.34;5041964;28;20111;-66
2022/09/08 03:18:48;;;;;;;10.90;5.72;;;;;;;12.16;92.99;97298.59;5043821;28;20057;-66
2022/09/08 03:21:15;;;;;;;9.23;5.80;;;;;;;12.18;94.42;97301.81;5043585;28;20614;-67
2022/09/08 03:23:42;;;;;;;9.98;6.43;;;;;;;12.50;93.79;97341.97;5045046;28;20152;-68
2022/09/08 03:26:12;;;;;;;9.52;5.95;;;;;;;12.53;93.33;97341.22;5047394;28;20052;-67
2022/09/08 03:28:40;;;;;;;12.05;6.45;;;;;;;11.93;93.72;97267.34;5047298;28;20048;-68
2022/09/08 03:31:08;;;;;;;11.30;6.07;;;;;;;11.65;93.36;97222.50;5047281;28;20049;-67
2022/09/08 03:33:35;;;;;;;7.25;5.18;;;;;;;12.03;93.74;97295.25;5046849;28;20060;-66
2022/09/08 03:36:05;;;;;;;11.60;6.45;;;;;;;12.44;94.52;97349.03;5045719;28;20136;-66
2022/09/08 03:38:32;;;;;;;10.35;6.20;;;;;;;12.48;94.21;97343.53;5046852;28;20136;-67
2022/09/08 03:40:59;;;;;;;9.57;5.50;;;;;;;12.44;94.01;97346.25;5045585;28;20230;-66
2022/09/08 03:43:26;;;;;;;11.52;6.15;;;;;;;12.37;94.02;97360.03;5046891;28;20088;-67
2022/09/08 03:45:53;;;;;;;9.50;5.90;;;;;;;12.29;94.45;97363.06;5046870;28;20110;-68
2022/09/08 03:48:19;;;;;;;11.55;7.88;;;;;;;12.23;94.70;97351.50;5046223;28;20471;-67
2022/09/08 03:50:46;;;;;;;9.57;6.47;;;;;;;12.02;94.74;97320.59;5046814;28;20128;-67
2022/09/08 03:53:13;;;;;;;15.32;8.25;;;;;;;12.07;94.84;97328.63;5046953;28;20081;-67
2022/09/08 03:55:41;;;;;;;10.73;6.70;;;;;;;12.34;94.89;97368.31;5046586;28;20508;-68
2022/09/08 03:58:10;;;;;;;7.80;5.85;;;;;;;12.35;94.41;97370.72;5046535;28;20076;-67
2022/09/08 04:00:41;;;;;;;12.35;7.10;;;;;;;11.66;93.53;97255.41;5046763;28;20053;-67
2022/09/08 04:03:08;;;;;;;12.00;6.63;;;;;;;12.40;93.84;97370.41;5047007;28;20056;-69
2022/09/08 04:05:34;;;;;;;9.20;6.72;;;;;;;12.40;93.19;97370.41;5046303;28;20483;-68
2022/09/08 04:08:01;;;;;;;11.75;7.50;;;;;;;12.40;93.15;97369.59;5046582;28;20160;-69
2022/09/08 04:10:28;;;;;;;9.70;7.15;;;;;;;12.03;92.95;97306.34;5045031;28;20168;-68
2022/09/08 04:12:54;;;;;;;11.55;7.57;;;;;;;12.18;93.37;97351.81;5046342;28;20566;-68
2022/09/08 04:15:21;;;;;;;12.27;7.45;;;;;;;12.20;93.69;97327.25;5036260;28;20077;-68
2022/09/08 04:17:48;;;;;;;13.70;6.65;;;;;;;11.72;93.26;97255.88;5026736;28;20152;-68
2022/09/08 04:20:16;;;;;;;11.38;7.10;;;;;;;12.58;93.34;97374.25;5024830;28;20081;-67
2022/09/08 04:22:43;;;;;;;9.65;5.88;;;;;;;12.14;94.64;97307.31;5026465;28;20072;-68
2022/09/08 04:25:10;;;;;;;11.50;6.10;;;;;;;12.56;95.15;97390.50;5024755;28;20068;-66
2022/09/08 04:27:37;;;;;;;11.25;7.68;;;;;;;12.71;93.31;97361.72;5025176;28;20540;-69
2022/09/08 04:30:04;;;;;;;13.63;6.43;;;;;;;12.85;93.12;97375.81;5025015;28;20474;-68
2022/09/08 04:32:35;;;;;;;10.75;6.55;;;;;;;12.70;93.66;97362.09;5026438;28;20053;-68
2022/09/08 04:35:02;;;;;;;10.85;6.28;;;;;;;13.02;92.87;97369.72;5026106;28;20180;-69
2022/09/08 04:37:29;;;;;;;13.77;7.40;;;;;;;12.94;91.67;97345.75;5026016;28;20172;-69
2022/09/08 04:39:56;;;;;;;9.77;6.40;;;;;;;12.61;90.96;97275.44;5024268;28;20119;-68
2022/09/08 04:42:23;;;;;;;9.85;6.22;;;;;;;12.87;90.20;97317.84;5026005;28;20080;-69
2022/09/08 04:44:49;;;;;;;9.57;5.72;;;;;;;13.42;89.45;97380.91;5019934;28;20141;-68
2022/09/08 04:47:16;;;;;;;14.90;5.95;;;;;;;13.47;88.24;97383.38;5005741;28;20118;-70
2022/09/08 04:49:43;;;;;;;8.30;6.07;;;;;;;13.68;88.17;97380.81;5013450;28;20483;-68
2022/09/08 04:52:09;;;;;;;21.00;7.00;;;;;;;13.87;86.91;97387.34;5025919;28;20182;-67
2022/09/08 04:54:36;;;;;;;29.42;7.57;;;;;;;13.87;86.11;97376.22;5025903;28;20119;-69
2022/09/08 04:57:03;;;;;;;18.02;6.93;;;;;;;13.82;86.85;97384.91;5025453;28;20522;-69
2022/09/08 04:59:30;;;;;;;17.45;7.82;;;;;;;12.48;86.98;97149.84;5023933;28;20420;-68
2022/09/08 05:01:56;;;;;;;10.98;5.88;;;;;;;13.78;86.01;97333.97;5024153;28;20409;-68
2022/09/08 05:04:23;;;;;;;9.25;6.65;;;;;;;14.34;85.51;97395.75;5025508;28;20489;-69
2022/09/08 05:06:50;;;;;;;11.55;6.13;;;;;;;14.09;85.50;97355.72;5024000;28;20136;-67
2022/09/08 05:09:16;;;;;;;11.30;6.47;;;;;;;14.54;84.63;97397.13;5023849;28;20140;-68
2022/09/08 05:11:43;;;;;;;9.80;5.93;;;;;;;14.69;83.54;97376.50;5025550;28;20211;-68
2022/09/08 05:14:10;;;;;;;14.27;6.47;;;;;;;14.94;82.60;97391.38;5023541;28;20077;-68
2022/09/08 05:16:36;;;;;;;9.63;5.90;;;;;;;14.71;81.63;97346.25;5043794;28;20141;-68
2022/09/08 05:19:05;;;;;;;10.00;5.88;;;;;;;15.12;81.41;97389.50;5043534;28;20060;-68
2022/09/08 05:21:33;;;;;;;13.00;5.88;;;;;;;15.00;80.61;97356.38;5043820;28;20139;-68
2022/09/08 05:24:01;;;;;;;10.50;6.40;;;;;;;15.39;79.68;97385.25;5044924;28;20132;-69
2022/09/08 05:26:28;;;;;;;9.35;6.43;;;;;;;14.79;79.79;97300.47;5033455;28;20158;-68
2022/09/08 05:28:56;;;;;;;11.30;6.07;;;;;;;15.63;79.14;97395.72;4850225;28;5001401;-69
2022/09/08 05:31:28;;;;;;;14.38;5.63;;;;;;;15.58;78.61;97357.00;5044849;28;20092;-69
2022/09/08 05:33:57;;;;;;;11.32;6.10;;;;;;;16.04;77.73;97388.63;5045118;28;20128;-68
2022/09/08 05:36:30;;;;;;;12.55;5.82;;;;;;;15.67;77.19;97312.72;5044849;28;20071;-68
2022/09/08 05:38:57;;;;;;;8.93;5.05;;;;;;;16.37;76.48;97385.44;5044710;28;20152;-68
2022/09/08 05:41:25;;;;;;;12.63;5.80;;;;;;;16.50;75.52;97389.44;5031016;28;20139;-68
2022/09/08 05:43:55;;;;;;;15.15;5.88;;;;;;;16.21;75.18;97371.06;5011598;28;20077;-62
2022/09/08 05:46:25;;;;;;;8.90;5.45;;;;;;;15.59;73.96;97215.38;5005857;28;20058;-69
2022/09/08 05:48:53;;;;;;;9.10;5.07;;;;;;;16.69;73.62;97346.28;5029694;28;20858;-68
2022/09/08 05:51:21;;;;;;;9.60;5.90;;;;;;;17.13;73.05;97387.72;5044168;28;20049;-69
2022/09/08 05:53:48;;;;;;;15.40;6.00;;;;;;;17.30;71.83;97381.28;5043077;28;20049;-68
2022/09/08 05:56:18;;;;;;;13.23;5.43;;;;;;;17.36;71.63;97368.44;5038491;28;20120;-68
2022/09/08 05:58:54;;;;;;;11.60;5.38;;;;;;;17.35;70.83;97338.84;5022150;28;20577;-61
2022/09/08 06:01:31;;;;;;;12.98;5.25;;;;;;;17.75;70.00;97374.69;4322217;28;10001977;-67
2022/09/08 06:03:59;;;;;;;8.97;5.07;;;;;;;17.14;69.96;97266.94;4667301;28;10001343;-68
2022/09/08 06:06:30;;;;;;;10.43;5.40;;;;;;;17.75;69.10;97335.47;5042784;28;20056;-68
2022/09/08 06:09:01;;;;;;;11.02;5.32;;;;;;;17.87;69.30;97354.59;5044322;28;20049;-62
2022/09/08 06:11:30;;;;;;;11.18;5.75;;;;;;;18.28;68.53;97380.72;5042531;28;20056;-65
2022/09/08 06:13:57;;;;;;;10.10;5.93;;;;;;;18.26;67.59;97343.88;5043841;28;20485;-64
2022/09/08 06:16:24;;;;;;;13.18;6.47;;;;;;;18.56;67.38;97386.13;5037901;28;20060;-70
2022/09/08 06:18:51;;;;;;;9.70;5.82;;;;;;;18.11;66.30;97284.31;5042565;28;20136;-70
2022/09/08 06:21:23;;;;;;;10.82;4.90;;;;;;;18.82;65.06;97374.28;5042239;28;20053;-65
2022/09/08 06:23:55;;;;;;;12.63;5.47;;;;;;;18.99;64.83;97375.28;5004793;28;20129;-67
2022/09/08 06:26:50;;;;;;;11.40;4.55;;;;;;;19.25;62.84;97369.75;5004719;28;20058;-69
2022/09/08 06:29:31;;;;;;;8.32;5.25;;;;;;;19.36;62.52;97367.66;5004583;28;20053;-66
2022/09/08 06:32:02;;;;;;;10.20;5.18;;;;;;;19.51;62.79;97369.09;5003346;28;20120;-65
2022/09/08 06:34:57;;;;;;;12.07;5.57;;;;;;;19.71;62.03;97365.63;5004610;28;20479;-63
2022/09/08 06:37:45;;;;;;;11.50;5.28;;;;;;;19.60;62.33;97325.63;5018373;28;20205;-69
2022/09/08 06:40:22;;;;;;;6.78;4.93;;;;;;;19.69;61.10;97339.94;5002988;28;20100;-66
2022/09/08 06:43:12;;;;;;;9.05;4.97;;;;;;;20.14;60.27;97372.25;5005258;28;20081;-67
2022/09/08 06:45:47;;;;;;;8.45;5.18;;;;;;;20.19;60.46;97368.94;5004497;28;20085;-65
2022/09/08 06:48:36;;;;;;;8.10;4.60;;;;;;;20.37;60.32;97369.47;5001683;28;20062;-67
2022/09/08 06:51:19;;;;;;;15.68;5.07;;;;;;;20.14;60.85;97325.22;5004156;28;20050;-63
2022/09/08 06:54:16;;;;;;;6.67;4.20;;;;;;;20.65;59.27;97371.81;5003732;28;20546;-70
2022/09/08 06:57:03;;;;;;;8.45;4.40;;;;;;;20.77;60.21;97371.22;5004065;28;20136;-62
2022/09/08 07:00:22;;;;;;;8.70;4.75;;;;;;;21.03;57.96;97378.78;4498736;28;10000466;-68
2022/09/08 07:03:17;;;;;;;5.78;4.32;;;;;;;20.32;57.15;97248.97;5018224;28;20868;-68
2022/09/08 07:05:57;;;;;;;8.88;4.85;;;;;;;21.14;58.08;97379.38;5007719;28;20120;-59
2022/09/08 07:08:50;;;;;;;8.40;4.55;;;;;;;19.99;56.62;97176.78;5010797;28;20061;-64
2022/09/08 07:11:47;;;;;;;8.25;4.60;;;;;;;21.42;55.74;97373.19;5006629;28;20077;-71
2022/09/08 07:14:17;;;;;;;12.02;5.60;;;;;;;21.06;56.05;97372.28;5007544;28;20058;-64
2022/09/08 07:16:51;;;;;;;7.05;3.85;;;;;;;20.07;56.02;97226.06;5018210;28;20139;-64
2022/09/08 07:19:49;;;;;;;6.38;4.38;;;;;;;21.24;56.31;97367.13;5013928;28;20053;-70
2022/09/08 07:22:37;;;;;;;5.97;4.70;;;;;;;21.19;56.00;97372.44;5005548;28;20076;-68
2022/09/08 07:25:15;;;;;;;8.85;4.93;;;;;;;20.50;55.22;97249.44;5008769;28;20046;-69
2022/09/08 07:27:45;;;;;;;8.18;4.30;;;;;;;21.53;54.57;97368.13;5021016;28;20213;-68
2022/09/08 07:30:18;;;;;;;7.18;4.38;;;;;;;21.19;53.22;97268.19;5008553;28;20126;-67
2022/09/08 07:32:51;;;;;;;7.47;4.13;;;;;;;21.16;52.86;97252.97;5007219;28;20058;-66
2022/09/08 07:36:00;;;;;;;6.43;4.40;;;;;;;20.77;51.35;97149.53;5005321;28;20141;-61
2022/09/08 07:38:46;;;;;;;10.65;4.50;;;;;;;22.33;51.32;97365.56;5014328;28;20137;-64
2022/09/08 07:41:22;;;;;;;8.05;4.32;;;;;;;22.40;49.84;97314.53;5024914;28;20103;-64
2022/09/08 07:43:53;;;;;;;9.82;4.68;;;;;;;22.09;49.56;97248.41;5011217;28;20046;-68
2022/09/08 07:46:31;;;;;;;10.73;4.60;;;;;;;23.05;48.88;97362.50;5023191;28;20081;-68
2022/09/08 07:48:58;;;;;;;11.73;5.00;;;;;;;23.18;48.70;97352.06;5026302;28;20103;-64
2022/09/08 07:51:33;;;;;;;7.28;4.18;;;;;;;23.38;48.04;97356.34;5026421;28;20053;-71
2022/09/08 07:54:06;;;;;;;9.27;4.47;;;;;;;23.49;48.10;97350.41;5018751;28;20132;-64
2022/09/08 07:56:46;;;;;;;8.50;4.68;;;;;;;23.27;47.57;97327.59;5018182;28;20496;-73
2022/09/08 07:59:53;;;;;;;6.82;4.18;;;;;;;21.70;47.58;97079.34;5006559;28;20137;-70
2022/09/08 08:02:23;;;;;;;6.03;4.32;;;;;;;23.43;47.84;97352.19;5006381;28;20429;-70
2022/09/08 08:05:14;;;;;;;6.22;4.88;;;;;;;23.17;46.90;97293.94;5006740;28;20453;-67
2022/09/08 08:07:54;;;;;;;7.07;4.28;;;;;;;23.65;46.45;97358.81;5006976;28;20145;-67
2022/09/08 08:10:25;;;;;;;7.00;4.20;;;;;;;23.67;46.57;97350.69;5006194;28;20050;-66
2022/09/08 08:13:20;;;;;;;5.18;4.30;;;;;;;23.78;46.06;97339.84;5006847;28;20157;-61
2022/09/08 08:16:09;;;;;;;4.82;4.30;;;;;;;22.91;46.05;97201.84;5012450;28;20053;-65
2022/09/08 08:19:17;;;;;;;7.07;4.38;;;;;;;23.79;46.93;97342.22;5017214;28;20079;-62
2022/09/08 08:22:14;;;;;;;5.35;4.07;;;;;;;23.88;45.97;97344.38;5018911;28;20115;-63
2022/09/08 08:24:46;;;;;;;6.60;4.47;;;;;;;23.79;46.22;97350.69;4986855;28;20475;-61
2022/09/08 08:27:23;;;;;;;5.68;4.10;;;;;;;23.99;46.21;97350.53;5017269;28;20081;-64
2022/09/08 08:30:02;;;;;;;5.53;4.28;;;;;;;23.72;45.63;97274.53;5023924;28;20163;-64
2022/09/08 08:32:37;;;;;;;4.93;4.28;;;;;;;24.29;45.36;97346.34;5024664;28;20571;-60
2022/09/08 08:35:42;;;;;;;5.78;4.60;;;;;;;24.33;45.14;97347.81;5022939;28;20132;-58
2022/09/08 08:38:18;;;;;;;7.60;4.65;;;;;;;24.10;45.78;97345.34;5021441;28;20512;-62
2022/09/08 08:41:06;;;;;;;8.88;5.13;;;;;;;24.30;45.96;97340.25;5022087;28;20092;-63
2022/09/08 08:44:18;;;;;;;4.63;3.55;;;;;;;24.33;45.26;97330.84;5025183;28;20046;-62
2022/09/08 08:46:49;;;;;;;8.05;4.72;;;;;;;23.83;45.38;97254.38;5004322;28;20149;-61
2022/09/08 08:49:22;;;;;;;8.27;4.97;;;;;;;24.36;45.88;97324.25;5017740;28;20093;-60
2022/09/08 08:52:05;;;;;;;9.60;4.80;;;;;;;24.51;45.33;97319.72;5025173;28;20119;-61
2022/09/08 08:54:44;;;;;;;5.53;4.87;;;;;;;24.83;45.18;97313.75;5017635;28;20141;-61
2022/09/08 08:57:25;;;;;;;11.32;5.30;;;;;;;24.37;45.09;97240.91;5016182;28;20949;-62
2022/09/08 09:00:20;;;;;;;6.43;5.10;;;;;;;24.62;45.24;97308.03;5014085;28;20052;-64
2022/09/08 09:02:55;;;;;;;7.75;4.18;;;;;;;24.91;45.08;97303.75;5017275;28;20141;-58
2022/09/08 09:05:49;;;;;;;10.00;4.60;;;;;;;24.74;45.08;97313.69;5019053;28;20049;-62
2022/09/08 09:08:34;;;;;;;8.00;5.18;;;;;;;24.72;45.08;97307.69;5017265;28;20104;-61
2022/09/08 09:11:19;;;;;;;8.13;4.55;;;;;;;25.04;45.28;97289.53;5015184;28;20498;-69
2022/09/08 09:14:08;;;;;;;7.22;4.15;;;;;;;25.07;44.74;97295.09;5017707;28;20496;-60
2022/09/08 09:16:47;;;;;;;9.48;3.95;;;;;;;25.34;44.93;97285.25;5023783;28;20061;-61
2022/09/08 09:19:42;;;;;;;7.35;4.80;;;;;;;25.59;43.54;97290.78;5024583;28;20495;-61
2022/09/08 09:22:50;;;;;;;5.25;4.40;;;;;;;25.59;44.11;97296.44;5023233;28;20517;-60
2022/09/08 09:25:34;;;;;;;7.68;5.00;;;;;;;25.30;44.59;97286.16;5021926;28;20057;-62
2022/09/08 09:28:23;;;;;;;5.45;4.35;;;;;;;25.62;44.07;97279.28;5023931;28;20646;-60
2022/09/08 09:30:55;;;;;;;9.65;5.28;;;;;;;25.87;43.90;97272.63;5012352;28;20102;-61
2022/09/08 09:33:30;;;;;;;7.65;5.32;;;;;;;25.64;43.11;97267.47;5023669;28;20057;-61
2022/09/08 09:36:15;;;;;;;11.07;5.30;;;;;;;25.87;43.79;97258.44;5022375;28;20104;-60
2022/09/08 09:38:56;;;;;;;6.15;5.10;;;;;;;24.92;43.47;97072.94;5019528;28;20140;-61
2022/09/08 09:41:35;;;;;;;6.50;4.95;;;;;;;25.98;43.10;97256.75;5018748;28;20521;-61
2022/09/08 09:44:10;;;;;;;7.30;4.95;;;;;;;26.08;42.99;97263.31;5022968;28;20111;-61
2022/09/08 09:47:07;;;;;;;10.43;5.30;;;;;;;26.33;43.01;97251.69;5023948;28;20891;-60
2022/09/08 09:50:01;;;;;;;7.22;4.97;;;;;;;26.60;42.85;97244.00;5015713;28;20053;-62
2022/09/08 09:52:31;;;;;;;;;;;;;;;26.93;41.63;97241.41;5022917;28;20136;-61
2022/09/08 09:55:03;;;;;;;5.78;4.80;;;;;;;26.52;41.97;97244.81;5023058;28;20023;-60
2022/09/08 09:57:54;;;;;;;6.55;5.53;;;;;;;26.19;42.47;97238.09;5023547;28;20141;-58
2022/09/08 10:00:29;;;;;;;8.63;4.95;;;;;;;25.87;42.67;97187.47;5022158;28;20065;-59
2022/09/08 10:03:05;;;;;;;5.93;4.65;;;;;;;26.79;42.22;97235.53;5020927;28;20490;-60
2022/09/08 10:05:50;;;;;;;7.03;4.55;;;;;;;27.09;41.07;97232.53;5022062;28;20200;-61
2022/09/08 10:08:42;;;;;;;8.10;5.18;;;;;;;27.40;41.17;97226.66;5022488;28;20057;-62
2022/09/08 10:11:42;;;;;;;5.75;4.90;;;;;;;27.56;40.01;97229.16;5022361;28;20049;-62
2022/09/08 10:14:34;;;;;;;8.95;5.18;;;;;;;27.03;41.44;97223.03;5015781;28;20426;-64
2022/09/08 10:17:33;;;;;;;15.60;9.25;;;;;;;27.17;41.20;97191.13;5017484;28;20111;-62
2022/09/08 10:20:03;;;;;;;7.80;5.95;;;;;;;27.55;40.38;97225.50;5023836;28;20057;-61
2022/09/08 10:23:24;;;;;;;5.57;5.07;;;;;;;27.42;40.12;97179.41;5023204;28;20508;-61
2022/09/08 10:26:16;;;;;;;7.15;5.03;;;;;;;27.95;39.94;97251.69;4962674;28;20062;-61
2022/09/08 10:29:01;;;;;;;10.43;4.57;;;;;;;27.97;39.78;97205.63;4962414;28;20592;-61
2022/09/08 10:31:38;;;;;;;8.00;4.43;;;;;;;28.05;39.29;97207.66;5009926;28;20088;-61
2022/09/08 10:34:34;;;;;;;5.43;4.93;;;;;;;28.22;39.64;97204.41;5026774;28;20075;-61
2022/09/08 10:37:14;;;;;;;6.13;4.75;;;;;;;28.34;39.57;97200.53;5026499;28;20045;-61
2022/09/08 10:39:41;;;;;;;10.43;5.40;;;;;;;28.54;39.63;97192.19;5027273;28;20056;-62
2022/09/08 10:42:20;;;;;;;6.40;5.65;;;;;;;28.49;39.46;97195.69;5027582;28;20057;-63
2022/09/08 10:45:00;;;;;;;8.63;5.00;;;;;;;27.81;40.38;97197.44;5023631;28;20062;-61
2022/09/08 10:48:12;;;;;;;6.80;5.03;;;;;;;27.19;40.39;97126.00;5027091;28;20436;-60
2022/09/08 10:51:17;;;;;;;6.50;5.18;;;;;;;27.98;39.77;97179.50;5010278;28;20087;-62
2022/09/08 10:53:46;;;;;;;9.90;4.63;;;;;;;28.11;39.66;97182.94;5015312;28;20061;-61
2022/09/08 10:56:26;;;;;;;11.40;5.45;;;;;;;27.64;40.31;97140.09;5027340;28;20132;-61
2022/09/08 10:58:58;;;;;;;10.68;5.72;;;;;;;28.13;40.03;97180.41;5027291;28;20057;-62
2022/09/08 11:02:03;;;;;;;6.55;5.30;;;;;;;27.92;40.05;97164.34;5026505;28;20152;-61
2022/09/08 11:04:39;;;;;;;7.95;5.35;;;;;;;27.62;40.42;97168.25;5003610;28;20491;-61
2022/09/08 11:07:14;;;;;;;8.18;4.72;;;;;;;28.19;39.82;97160.56;5026940;28;20081;-61
2022/09/08 11:10:00;;;;;;;6.53;4.45;;;;;;;28.42;40.54;97154.09;5027002;28;20120;-61
2022/09/08 11:13:12;;;;;;;6.03;4.35;;;;;;;27.88;40.14;97152.34;5022395;28;20063;-62
2022/09/08 11:15:46;;;;;;;8.18;5.65;;;;;;;27.37;41.10;97060.53;5019080;28;20250;-61
2022/09/08 11:18:36;;;;;;;7.90;5.45;;;;;;;28.25;40.65;97140.75;5026558;28;20056;-61
2022/09/08 11:21:08;;;;;;;8.30;6.28;;;;;;;28.22;40.04;97101.84;5008994;28;20512;-61
2022/09/08 11:24:12;;;;;;;6.07;5.05;;;;;;;28.49;39.78;97133.78;5026813;28;20069;-61
2022/09/08 11:27:07;;;;;;;7.18;5.00;;;;;;;27.87;40.71;97093.78;5026679;28;20135;-61
2022/09/08 11:29:36;;;;;;;8.23;5.15;;;;;;;28.22;40.65;97133.19;5026113;28;20057;-61
2022/09/08 11:32:15;;;;;;;10.13;4.82;;;;;;;28.33;40.32;97113.47;5026198;28;21259;-62
2022/09/08 11:35:01;;;;;;;9.20;5.78;;;;;;;28.07;40.88;97068.34;5026523;28;20080;-61
2022/09/08 11:38:00;;;;;;;9.73;6.28;;;;;;;28.56;39.69;97113.47;5024838;28;20057;-61
2022/09/08 11:40:33;;;;;;;8.63;4.95;;;;;;;28.29;40.29;97115.69;4986075;28;20089;-62
2022/09/08 11:43:33;;;;;;;7.93;5.00;;;;;;;28.58;40.50;97112.97;5026699;28;20539;-61
2022/09/08 11:46:20;;;;;;;10.07;5.68;;;;;;;27.18;40.07;96854.19;5025696;28;20053;-61
2022/09/08 11:49:11;;;;;;;9.20;5.70;;;;;;;28.81;39.42;97117.81;5025665;28;20139;-62
2022/09/08 11:52:17;;;;;;;7.07;5.50;;;;;;;28.75;39.73;97117.72;5021259;28;20056;-61
2022/09/08 11:55:39;;;;;;;7.10;5.85;;;;;;;28.43;39.91;97118.59;5020790;28;20159;-61
2022/09/08 11:58:30;;;;;;;6.10;4.82;;;;;;;28.08;39.76;96995.88;5010544;28;20981;-63
2022/09/08 12:01:48;;;;;;;7.03;4.68;;;;;;;28.96;39.19;97101.53;5025281;28;20394;-61
2022/09/08 12:04:28;;;;;;;7.65;5.40;;;;;;;29.07;39.71;97116.03;5002386;28;20144;-62
2022/09/08 12:07:10;;;;;;;6.75;5.32;;;;;;;28.84;39.70;97102.56;5018224;28;20511;-61
2022/09/08 12:10:10;;;;;;;8.27;5.10;;;;;;;28.92;39.24;97052.41;5021231;28;20643;-61
2022/09/08 12:12:52;;;;;;;8.40;6.10;;;;;;;29.17;39.43;97092.59;5021508;28;20049;-61
2022/09/08 12:15:40;;;;;;;7.20;5.32;;;;;;;28.85;39.34;97098.47;5019777;28;20116;-68
2022/09/08 12:18:17;;;;;;;6.70;5.57;;;;;;;27.20;39.43;96834.59;5013359;28;20068;-67
2022/09/08 12:21:13;;;;;;;10.07;7.30;;;;;;;28.75;39.38;97048.50;5020345;28;20050;-66